createdAt,value
2019-02-02T00:00:43.365Z,142.67
2019-02-02T00:03:12.406Z,138.63
2019-02-02T00:05:40.811Z,129.30
2019-02-02T00:08:09.590Z,130.27
2019-02-02T00:10:37.992Z,148.87
2019-02-02T00:13:06.781Z,142.67
2019-02-02T00:15:35.264Z,139.67
2019-02-02T00:18:03.809Z,139.40
2019-02-02T00:20:32.245Z,146.03
2019-02-02T00:23:00.657Z,141.90
2019-02-02T00:25:29.154Z,134.20
2019-02-02T00:27:57.592Z,144.90
2019-02-02T00:30:26.384Z,144.90
2019-02-02T00:32:54.836Z,154.77
2019-02-02T00:35:23.260Z,150.97
2019-02-02T00:37:51.682Z,143.73
2019-02-02T00:40:20.649Z,151.70
2019-02-02T00:42:49.143Z,144.43
2019-02-02T00:45:19.475Z,138.63
2019-02-02T00:47:47.890Z,133.07
2019-02-02T00:50:16.745Z,137.50
2019-02-02T00:52:45.174Z,144.20
2019-02-02T00:55:15.528Z,138.20
2019-02-02T00:57:53.088Z,137.37
2019-02-02T01:00:22.232Z,150.97
2019-02-02T01:02:50.732Z,140.73
2019-02-02T01:05:21.564Z,142.17
2019-02-02T01:07:50.684Z,143.00
2019-02-02T01:10:22.145Z,139.47
2019-02-02T01:12:50.648Z,159.37
2019-02-02T01:15:19.309Z,148.20
2019-02-02T01:17:47.745Z,137.40
2019-02-02T01:20:16.428Z,140.67
2019-02-02T01:22:45.012Z,146.63
2019-02-02T01:25:15.385Z,151.73
2019-02-02T01:27:43.932Z,146.43
2019-02-02T01:30:15.448Z,140.70
2019-02-02T01:32:43.933Z,146.40
2019-02-02T01:35:14.809Z,144.30
2019-02-02T01:37:43.365Z,138.87
2019-02-02T01:40:14.895Z,134.07
2019-02-02T01:42:43.456Z,133.87
2019-02-02T01:45:15.315Z,150.73
2019-02-02T01:47:43.816Z,150.97
2019-02-02T01:50:15.168Z,147.67
2019-02-02T01:52:43.609Z,146.47
2019-02-02T01:55:14.528Z,144.60
2019-02-02T01:57:43.128Z,151.93
2019-02-02T02:00:34.196Z,155.77
2019-02-02T02:03:02.783Z,147.23
2019-02-02T02:05:31.268Z,151.70
2019-02-02T02:08:00.055Z,142.80
2019-02-02T02:10:28.452Z,160.27
2019-02-02T02:12:57.127Z,148.00
2019-02-02T02:15:25.539Z,148.37
2019-02-02T02:17:54.025Z,156.47
2019-02-02T02:20:24.390Z,155.40
2019-02-02T02:22:52.473Z,154.77
2019-02-02T02:25:21.342Z,155.30
2019-02-02T02:27:50.199Z,150.50
2019-02-02T02:30:20.427Z,160.50
2019-02-02T02:32:49.441Z,160.93
2019-02-02T02:35:17.953Z,159.53
2019-02-02T02:37:46.621Z,152.00
2019-02-02T02:40:20.308Z,150.73
2019-02-02T02:42:48.962Z,159.90
2019-02-02T02:45:17.621Z,167.77
2019-02-02T02:47:46.176Z,164.23
2019-02-02T02:50:17.129Z,154.57
2019-02-02T02:52:45.541Z,159.10
2019-02-02T02:55:15.405Z,164.10
2019-02-02T02:57:43.893Z,169.97
2019-02-02T03:00:18.644Z,159.07
2019-02-02T03:02:47.148Z,155.67
2019-02-02T03:05:16.896Z,169.77
2019-02-02T03:07:45.928Z,161.87
2019-02-02T03:10:16.484Z,155.73
2019-02-02T03:12:45.037Z,160.63
2019-02-02T03:15:15.612Z,170.07
2019-02-02T03:17:44.459Z,158.73
2019-02-02T03:20:15.038Z,156.77
2019-02-02T03:22:43.801Z,155.43
2019-02-02T03:25:15.048Z,154.07
2019-02-02T03:27:43.460Z,169.20
2019-02-02T03:30:16.606Z,156.27
2019-02-02T03:32:45.186Z,157.80
2019-02-02T03:35:15.643Z,157.47
2019-02-02T03:37:44.152Z,156.22
2019-02-02T03:40:17.770Z,156.47
2019-02-02T03:42:46.292Z,157.17
2019-02-02T03:45:17.108Z,152.17
2019-02-02T03:47:45.530Z,157.73
2019-02-02T03:50:14.202Z,157.10
2019-02-02T03:52:42.622Z,162.50
2019-02-02T03:55:15.599Z,153.63
2019-02-02T03:57:44.092Z,170.67
2019-02-02T04:00:15.615Z,151.27
2019-02-02T04:02:44.180Z,156.43
2019-02-02T04:05:15.056Z,156.43
2019-02-02T04:07:43.489Z,168.23
2019-02-02T04:10:13.441Z,164.80
2019-02-02T04:12:41.876Z,172.17
2019-02-02T04:15:12.297Z,169.30
2019-02-02T04:17:40.873Z,164.57
2019-02-02T04:20:15.478Z,178.10
2019-02-02T04:22:43.922Z,162.57
2019-02-02T04:25:12.597Z,174.27
2019-02-02T04:27:41.040Z,161.07
2019-02-02T04:30:12.780Z,167.67
2019-02-02T04:32:41.214Z,157.93
2019-02-02T04:35:10.608Z,167.87
2019-02-02T04:37:39.100Z,158.53
2019-02-02T04:40:10.550Z,162.57
2019-02-02T04:42:39.009Z,161.40
2019-02-02T04:45:09.768Z,160.33
2019-02-02T04:47:38.383Z,169.23
2019-02-02T04:50:09.882Z,159.80
2019-02-02T04:52:38.356Z,164.90
2019-02-02T04:55:08.208Z,165.10
2019-02-02T04:57:36.640Z,163.43
2019-02-02T05:00:08.402Z,152.13
2019-02-02T05:02:36.824Z,165.07
2019-02-02T05:05:08.338Z,159.63
2019-02-02T05:07:36.776Z,159.67
2019-02-02T05:10:11.300Z,157.00
2019-02-02T05:12:39.742Z,166.90
2019-02-02T05:15:08.591Z,150.67
2019-02-02T05:17:36.995Z,178.57
2019-02-02T05:20:08.546Z,163.80
2019-02-02T05:22:37.008Z,164.13
2019-02-02T05:25:07.067Z,166.20
2019-02-02T05:27:35.500Z,147.27
2019-02-02T05:30:06.721Z,166.93
2019-02-02T05:32:35.396Z,179.20
2019-02-02T05:35:04.984Z,164.53
2019-02-02T05:37:33.417Z,170.60
2019-02-02T05:40:02.931Z,163.83
2019-02-02T05:42:31.372Z,169.90
2019-02-02T05:44:59.784Z,158.87
2019-02-02T05:47:28.216Z,168.27
2019-02-02T05:49:56.628Z,171.07
2019-02-02T05:52:25.057Z,170.17
2019-02-02T05:54:53.492Z,165.33
2019-02-02T05:57:21.893Z,177.10
2019-02-02T05:59:52.908Z,176.00
2019-02-02T06:02:20.448Z,175.57
2019-02-02T06:04:48.888Z,169.47
2019-02-02T06:07:17.565Z,174.83
2019-02-02T06:09:46.005Z,183.90
2019-02-02T06:12:14.504Z,170.23
2019-02-02T06:14:42.944Z,175.03
2019-02-02T06:17:11.437Z,185.17
2019-02-02T06:19:39.888Z,187.80
2019-02-02T06:22:08.301Z,177.77
2019-02-02T06:24:36.723Z,189.37
2019-02-02T06:27:05.160Z,182.47
2019-02-02T06:29:35.121Z,174.17
2019-02-02T06:32:11.468Z,191.90
2019-02-02T06:34:33.783Z,192.67
2019-02-02T06:37:02.173Z,175.83
2019-02-02T06:39:30.619Z,184.33
2019-02-02T06:41:59.033Z,182.67
2019-02-02T06:44:27.459Z,188.60
2019-02-02T06:46:55.897Z,176.30
2019-02-02T06:49:24.310Z,180.53
2019-02-02T06:51:52.737Z,182.53
2019-02-02T06:54:21.258Z,202.33
2019-02-02T06:56:49.684Z,192.30
2019-02-02T06:59:18.112Z,193.90
2019-02-02T07:01:46.626Z,189.20
2019-02-02T07:04:15.100Z,182.33
2019-02-02T07:06:43.525Z,186.03
2019-02-02T07:09:12.015Z,194.13
2019-02-02T07:11:40.463Z,193.60
2019-02-02T07:14:08.905Z,202.17
2019-02-02T07:16:37.573Z,201.87
2019-02-02T07:19:06.020Z,183.30
2019-02-02T07:21:34.499Z,188.80
2019-02-02T07:24:02.925Z,185.43
2019-02-02T07:26:31.587Z,191.40
2019-02-02T07:29:00.026Z,183.90
2019-02-02T07:31:28.476Z,194.83
2019-02-02T07:33:56.918Z,192.23
2019-02-02T07:36:25.330Z,194.83
2019-02-02T07:38:53.786Z,200.63
2019-02-02T07:41:22.528Z,193.90
2019-02-02T07:43:50.976Z,190.17
2019-02-02T07:46:19.408Z,189.33
2019-02-02T07:48:48.812Z,193.80
2019-02-02T07:51:21.324Z,190.53
2019-02-02T07:53:47.497Z,201.57
2019-02-02T07:56:15.916Z,202.47
2019-02-02T07:58:47.112Z,194.73
2019-02-02T08:01:15.552Z,191.93
2019-02-02T08:03:45.926Z,186.57
2019-02-02T08:06:14.396Z,196.63
2019-02-02T08:08:42.886Z,206.67
2019-02-02T08:11:13.206Z,205.33
2019-02-02T08:13:41.668Z,195.63
2019-02-02T08:16:10.111Z,195.57
2019-02-02T08:18:38.572Z,196.10
2019-02-02T08:21:07.076Z,191.50
2019-02-02T08:23:35.487Z,195.63
2019-02-02T08:26:04.200Z,197.97
2019-02-02T08:28:32.993Z,200.30
2019-02-02T08:31:01.472Z,203.07
2019-02-02T08:33:35.861Z,197.30
2019-02-02T08:36:04.667Z,188.60
2019-02-02T08:38:33.173Z,188.53
2019-02-02T08:41:01.611Z,193.20
2019-02-02T08:43:30.088Z,182.03
2019-02-02T08:45:58.521Z,197.30
2019-02-02T08:48:27.032Z,185.53
2019-02-02T08:50:55.713Z,188.73
2019-02-02T08:53:24.334Z,189.37
2019-02-02T08:55:52.858Z,184.87
2019-02-02T08:58:21.552Z,185.97
2019-02-02T09:00:50.084Z,181.23
2019-02-02T09:03:18.626Z,177.20
2019-02-02T09:05:47.107Z,170.07
2019-02-02T09:08:15.514Z,183.67
2019-02-02T09:10:43.977Z,201.73
2019-02-02T09:13:13.429Z,184.37
2019-02-02T09:15:43.757Z,188.80
2019-02-02T09:18:12.193Z,182.23
2019-02-02T09:20:40.610Z,185.13
2019-02-02T09:23:09.041Z,187.40
2019-02-02T09:25:37.481Z,184.50
2019-02-02T09:28:07.050Z,188.37
2019-02-02T09:30:36.517Z,183.93
2019-02-02T09:33:07.757Z,188.07
2019-02-02T09:35:36.190Z,180.03
2019-02-02T09:38:05.209Z,183.77
2019-02-02T09:40:33.692Z,182.20
2019-02-02T09:43:02.132Z,183.33
2019-02-02T09:45:30.707Z,180.70
2019-02-02T09:48:00.185Z,189.73
2019-02-02T09:50:29.040Z,180.03
2019-02-02T09:52:57.545Z,171.63
2019-02-02T09:55:26.734Z,178.20
2019-02-02T09:57:57.882Z,173.90
2019-02-02T10:00:28.805Z,175.20
2019-02-02T10:02:57.772Z,177.83
2019-02-02T10:05:26.436Z,185.13
2019-02-02T10:07:55.028Z,182.80
2019-02-02T10:10:25.740Z,177.17
2019-02-02T10:12:54.155Z,178.07
2019-02-02T10:15:22.640Z,180.70
2019-02-02T10:17:51.101Z,183.00
2019-02-02T10:20:21.561Z,180.23
2019-02-02T10:22:50.018Z,191.83
2019-02-02T10:25:21.112Z,174.63
2019-02-02T10:27:49.635Z,189.57
2019-02-02T10:30:29.763Z,177.77
2019-02-02T10:32:58.254Z,179.63
2019-02-02T10:35:26.768Z,186.37
2019-02-02T10:37:55.346Z,178.73
2019-02-02T10:40:25.350Z,179.80
2019-02-02T10:42:53.757Z,165.67
2019-02-02T10:45:22.425Z,191.10
2019-02-02T10:47:50.931Z,174.70
2019-02-02T10:50:23.199Z,184.10
2019-02-02T10:52:51.635Z,181.63
2019-02-02T10:55:20.133Z,178.47
2019-02-02T10:57:50.160Z,182.37
2019-02-02T11:00:24.377Z,177.67
2019-02-02T11:02:52.811Z,175.53
2019-02-02T11:05:21.487Z,180.07
2019-02-02T11:07:50.092Z,174.13
2019-02-02T11:10:24.296Z,183.13
2019-02-02T11:12:52.904Z,187.33
2019-02-02T11:15:22.699Z,171.77
2019-02-02T11:17:51.324Z,179.10
2019-02-02T11:20:25.691Z,177.53
2019-02-02T11:22:54.356Z,179.43
2019-02-02T11:25:23.047Z,180.10
2019-02-02T11:27:51.824Z,176.87
2019-02-02T11:30:21.441Z,168.57
2019-02-02T11:32:49.864Z,184.77
2019-02-02T11:35:19.737Z,170.40
2019-02-02T11:37:48.166Z,171.03
2019-02-02T11:40:22.581Z,173.63
2019-02-02T11:42:51.084Z,174.80
2019-02-02T11:45:19.498Z,176.43
2019-02-02T11:47:48.197Z,178.13
2019-02-02T11:50:21.164Z,171.70
2019-02-02T11:52:49.821Z,180.17
2019-02-02T11:55:20.766Z,171.03
2019-02-02T11:57:50.089Z,164.50
2019-02-02T12:00:21.757Z,174.30
2019-02-02T12:02:50.197Z,166.50
2019-02-02T12:05:18.692Z,174.03
2019-02-02T12:07:47.192Z,164.27
2019-02-02T12:10:20.618Z,174.73
2019-02-02T12:12:49.092Z,169.20
2019-02-02T12:15:18.866Z,170.07
2019-02-02T12:17:47.621Z,166.33
2019-02-02T12:20:17.893Z,169.50
2019-02-02T12:22:46.438Z,170.63
2019-02-02T12:25:15.506Z,166.13
2019-02-02T12:27:44.052Z,156.73
2019-02-02T12:30:21.358Z,170.63
2019-02-02T12:32:49.775Z,159.80
2019-02-02T12:35:20.141Z,169.33
2019-02-02T12:37:48.616Z,165.50
2019-02-02T12:40:19.603Z,156.60
2019-02-02T12:42:48.464Z,167.83
2019-02-02T12:45:19.913Z,160.63
2019-02-02T12:47:48.416Z,158.40
2019-02-02T12:50:16.897Z,158.87
2019-02-02T12:52:45.466Z,158.00
2019-02-02T12:55:14.022Z,161.27
2019-02-02T12:57:42.604Z,159.87
2019-02-02T13:00:19.792Z,162.97
2019-02-02T13:02:50.325Z,163.70
2019-02-02T13:05:22.007Z,156.80
2019-02-02T13:07:50.448Z,160.53
2019-02-02T13:10:24.991Z,159.27
2019-02-02T13:12:53.809Z,153.63
2019-02-02T13:15:22.681Z,151.37
2019-02-02T13:17:51.756Z,153.47
2019-02-02T13:20:52.183Z,164.07
2019-02-02T13:23:21.914Z,149.30
2019-02-02T13:25:50.381Z,155.90
2019-02-02T13:28:18.819Z,159.70
2019-02-02T13:30:48.881Z,154.83
2019-02-02T13:33:17.319Z,163.60
2019-02-02T13:35:45.870Z,154.60
2019-02-02T13:38:14.292Z,160.73
2019-02-02T13:40:42.701Z,156.23
2019-02-02T13:43:11.132Z,158.13
2019-02-02T13:45:39.554Z,153.23
2019-02-02T13:48:08.048Z,165.07
2019-02-02T13:50:36.569Z,170.60
2019-02-02T13:53:05.497Z,157.03
2019-02-02T13:55:33.905Z,159.60
2019-02-02T13:58:02.368Z,148.03
2019-02-02T14:00:33.201Z,148.07
2019-02-02T14:03:03.584Z,158.57
2019-02-02T14:05:31.768Z,154.30
2019-02-02T14:08:00.465Z,152.13
2019-02-02T14:10:31.448Z,152.37
2019-02-02T14:12:59.992Z,150.13
2019-02-02T14:15:28.429Z,146.17
2019-02-02T14:17:56.856Z,152.00
2019-02-02T14:20:26.236Z,149.87
2019-02-02T14:22:54.934Z,141.80
2019-02-02T14:25:23.496Z,142.17
2019-02-02T14:27:51.997Z,133.20
2019-02-02T14:30:24.948Z,140.77
2019-02-02T14:32:55.317Z,143.30
2019-02-02T14:35:25.983Z,139.73
2019-02-02T14:37:54.607Z,134.90
2019-02-02T14:40:23.171Z,134.97
2019-02-02T14:42:55.666Z,130.10
2019-02-02T14:45:27.528Z,133.70
2019-02-02T14:47:56.128Z,135.47
2019-02-02T14:50:26.391Z,132.53
2019-02-02T14:52:55.097Z,141.40
2019-02-02T14:55:25.769Z,131.93
2019-02-02T14:57:54.568Z,134.13
2019-02-02T15:00:25.382Z,131.30
2019-02-02T15:02:53.899Z,128.97
2019-02-02T15:05:22.559Z,128.90
2019-02-02T15:07:51.109Z,136.80
2019-02-02T15:10:20.485Z,134.83
2019-02-02T15:12:48.987Z,130.63
2019-02-02T15:15:17.785Z,120.20
2019-02-02T15:17:46.269Z,131.20
2019-02-02T15:20:17.781Z,131.70
2019-02-02T15:22:46.193Z,123.60
2019-02-02T15:25:14.878Z,115.47
2019-02-02T15:27:43.324Z,124.33
2019-02-02T15:30:14.847Z,123.73
2019-02-02T15:32:43.341Z,119.60
2019-02-02T15:35:14.172Z,115.27
2019-02-02T15:37:42.005Z,121.67
2019-02-02T15:40:13.884Z,117.53
2019-02-02T15:42:42.312Z,127.33
2019-02-02T15:45:13.185Z,126.97
2019-02-02T15:47:41.660Z,125.97
2019-02-02T15:50:15.247Z,136.30
2019-02-02T15:52:44.019Z,131.13
2019-02-02T15:55:14.878Z,134.67
2019-02-02T15:57:45.474Z,130.73
2019-02-02T16:00:28.046Z,140.97
2019-02-02T16:02:56.540Z,131.60
2019-02-02T16:05:25.443Z,128.00
2019-02-02T16:07:54.357Z,123.63
2019-02-02T16:10:25.542Z,132.67
2019-02-02T16:12:54.080Z,134.57
2019-02-02T16:15:26.203Z,125.57
2019-02-02T16:17:54.722Z,127.23
2019-02-02T16:20:25.601Z,131.23
2019-02-02T16:22:54.370Z,133.43
2019-02-02T16:25:23.556Z,127.57
2019-02-02T16:27:51.994Z,143.10
2019-02-02T16:30:23.699Z,138.27
2019-02-02T16:32:52.164Z,130.33
2019-02-02T16:35:20.628Z,141.97
2019-02-02T16:37:50.362Z,143.80
2019-02-02T16:40:29.420Z,144.07
2019-02-02T16:42:57.941Z,136.40
2019-02-02T16:45:32.290Z,153.93
2019-02-02T16:48:00.725Z,151.77
2019-02-02T16:50:32.705Z,153.63
2019-02-02T16:53:01.150Z,158.50
2019-02-02T16:55:29.549Z,155.80
2019-02-02T16:57:58.020Z,156.50
2019-02-02T17:00:28.772Z,154.73
2019-02-02T17:02:58.342Z,150.70
2019-02-02T17:05:26.788Z,154.13
2019-02-02T17:07:55.373Z,156.47
2019-02-02T17:10:28.987Z,147.33
2019-02-02T17:12:58.006Z,157.17
2019-02-02T17:15:27.109Z,148.43
2019-02-02T17:17:56.966Z,149.83
2019-02-02T17:20:31.782Z,137.53
2019-02-02T17:23:00.405Z,147.70
2019-02-02T17:25:31.156Z,159.93
2019-02-02T17:27:59.753Z,143.97
2019-02-02T17:30:28.732Z,149.27
2019-02-02T17:33:00.541Z,146.87
2019-02-02T17:35:29.126Z,153.83
2019-02-02T17:37:57.572Z,149.17
2019-02-02T17:40:28.502Z,154.45
2019-02-02T17:42:57.355Z,158.70
2019-02-02T17:45:25.994Z,148.67
2019-02-02T17:47:55.378Z,148.07
2019-02-02T17:50:27.457Z,151.00
2019-02-02T17:52:56.009Z,152.40
2019-02-02T17:55:24.488Z,164.63
2019-02-02T17:57:53.088Z,154.07
2019-02-02T18:00:34.247Z,152.23
2019-02-02T18:03:02.648Z,148.77
2019-02-02T18:05:31.075Z,159.63
2019-02-02T18:07:59.577Z,151.87
2019-02-02T18:10:28.553Z,159.13
2019-02-02T18:12:56.976Z,155.07
2019-02-02T18:15:25.380Z,148.77
2019-02-02T18:17:53.843Z,156.57
2019-02-02T18:20:22.244Z,162.70
2019-02-02T18:22:50.672Z,156.53
2019-02-02T18:25:19.215Z,148.43
2019-02-02T18:27:47.785Z,153.43
2019-02-02T18:30:24.389Z,153.37
2019-02-02T18:32:53.063Z,153.67
2019-02-02T18:35:21.643Z,160.33
2019-02-02T18:37:50.069Z,156.33
2019-02-02T18:40:21.293Z,156.53
2019-02-02T18:42:50.138Z,164.57
2019-02-02T18:45:23.997Z,155.63
2019-02-02T18:47:52.489Z,157.23
2019-02-02T18:50:20.917Z,160.60
2019-02-02T18:52:51.077Z,154.40
2019-02-02T18:55:22.309Z,156.20
2019-02-02T18:57:50.742Z,169.43
2019-02-02T19:00:20.908Z,177.43
2019-02-02T19:02:52.288Z,158.07
2019-02-02T19:05:20.797Z,167.30
2019-02-02T19:07:49.202Z,157.93
2019-02-02T19:10:20.344Z,165.40
2019-02-02T19:12:48.756Z,161.17
2019-02-02T19:15:17.308Z,156.90
2019-02-02T19:17:45.815Z,151.50
2019-02-02T19:20:16.756Z,164.80
2019-02-02T19:22:45.188Z,157.60
2019-02-02T19:25:14.652Z,176.65
2019-02-02T19:27:43.320Z,149.73
2019-02-02T19:30:17.309Z,164.07
2019-02-02T19:32:46.041Z,158.93
2019-02-02T19:35:16.369Z,156.30
2019-02-02T19:37:44.757Z,155.77
2019-02-02T19:40:15.304Z,155.57
2019-02-02T19:42:43.785Z,153.97
2019-02-02T19:45:17.572Z,159.50
2019-02-02T19:47:46.057Z,160.07
2019-02-02T19:50:17.286Z,152.67
2019-02-02T19:52:45.845Z,150.03
2019-02-02T19:55:15.114Z,160.07
2019-02-02T19:57:43.752Z,146.70
2019-02-02T20:00:17.398Z,150.80
2019-02-02T20:02:45.804Z,150.90
2019-02-02T20:05:14.406Z,150.87
2019-02-02T20:07:42.815Z,153.80
2019-02-02T20:10:14.098Z,161.90
2019-02-02T20:12:42.662Z,156.80
2019-02-02T20:15:19.693Z,150.43
2019-02-02T20:17:48.428Z,146.67
2019-02-02T20:20:24.220Z,161.33
2019-02-02T20:22:53.002Z,153.33
2019-02-02T20:25:21.489Z,149.90
2019-02-02T20:27:50.061Z,151.20
2019-02-02T20:30:21.012Z,152.93
2019-02-02T20:32:49.490Z,158.77
2019-02-02T20:35:17.892Z,158.73
2019-02-02T20:37:46.322Z,151.70
2019-02-02T20:40:26.747Z,162.40
2019-02-02T20:42:55.396Z,145.40
2019-02-02T20:45:29.345Z,167.73
2019-02-02T20:47:57.752Z,163.87
2019-02-02T20:50:26.302Z,153.60
2019-02-02T20:52:54.792Z,159.87
2019-02-02T20:55:26.188Z,148.33
2019-02-02T20:57:54.602Z,155.23
2019-02-02T21:00:25.620Z,151.03
2019-02-02T21:02:54.353Z,144.37
2019-02-02T21:05:22.862Z,143.20
2019-02-02T21:07:52.356Z,148.20
2019-02-02T21:10:23.000Z,143.07
2019-02-02T21:12:51.539Z,151.53
2019-02-02T21:15:19.977Z,135.77
2019-02-02T21:17:48.816Z,142.50
2019-02-02T21:20:28.169Z,139.23
2019-02-02T21:22:56.750Z,144.17
2019-02-02T21:25:25.396Z,144.53
2019-02-02T21:27:53.816Z,147.03
2019-02-02T21:30:24.836Z,141.20
2019-02-02T21:32:53.404Z,137.20
2019-02-02T21:35:22.388Z,145.33
2019-02-02T21:37:50.822Z,139.10
2019-02-02T21:40:21.790Z,142.17
2019-02-02T21:42:50.232Z,140.30
2019-02-02T21:45:18.730Z,148.43
2019-02-02T21:47:47.138Z,131.33
2019-02-02T21:50:17.795Z,132.23
2019-02-02T21:52:46.232Z,144.33
2019-02-02T21:55:16.960Z,127.13
2019-02-02T21:57:45.457Z,134.93
2019-02-02T22:00:25.578Z,135.47
2019-02-02T22:02:53.983Z,130.03
2019-02-02T22:05:22.489Z,129.47
2019-02-02T22:07:51.140Z,132.37
2019-02-02T22:10:19.824Z,139.27
2019-02-02T22:12:48.243Z,130.90
2019-02-02T22:15:19.396Z,131.07
2019-02-02T22:17:48.149Z,135.10
2019-02-02T22:20:17.892Z,134.20
2019-02-02T22:22:46.444Z,133.43
2019-02-02T22:25:17.388Z,132.90
2019-02-02T22:27:46.344Z,132.10
2019-02-02T22:30:17.791Z,130.23
2019-02-02T22:32:46.224Z,135.03
2019-02-02T22:35:14.815Z,138.17
2019-02-02T22:37:43.304Z,136.20
2019-02-02T22:40:17.480Z,138.23
2019-02-02T22:42:45.903Z,132.33
2019-02-02T22:45:17.319Z,135.23
2019-02-02T22:47:45.862Z,137.90
2019-02-02T22:50:16.984Z,135.83
2019-02-02T22:52:45.826Z,141.70
2019-02-02T22:55:16.876Z,137.40
2019-02-02T22:57:45.303Z,129.13
2019-02-02T23:00:24.308Z,132.00
2019-02-02T23:02:52.744Z,134.10
2019-02-02T23:05:26.953Z,135.17
2019-02-02T23:07:58.832Z,134.07
2019-02-02T23:10:48.289Z,135.23
2019-02-02T23:13:34.743Z,137.00
2019-02-02T23:16:22.338Z,129.40
2019-02-02T23:18:51.139Z,129.87
2019-02-02T23:21:19.547Z,120.00
2019-02-02T23:23:47.987Z,129.23
2019-02-02T23:26:16.436Z,126.13
2019-02-02T23:28:44.940Z,126.95
2019-02-02T23:31:13.942Z,115.97
2019-02-02T23:33:42.628Z,124.57
2019-02-02T23:36:11.068Z,128.73
2019-02-02T23:38:39.481Z,118.13
2019-02-02T23:41:07.889Z,111.87
2019-02-02T23:43:36.374Z,122.07
2019-02-02T23:46:04.949Z,111.57
2019-02-02T23:48:33.362Z,117.17
2019-02-02T23:51:01.820Z,117.00
2019-02-02T23:53:30.252Z,118.83
2019-02-02T23:55:58.680Z,114.87
2019-02-02T23:58:27.089Z,115.00
